sensor_id;sensor_type;location;lat;lon;timestamp;P1;durP1;ratioP1;P2;durP2;ratioP2
76290;SDS011;65100;46.884;17.410;2022-11-15T00:01:33;97.07;;;25.57;;
76290;SDS011;65100;46.884;17.410;2022-11-15T00:03:58;92.82;;;25.23;;
76290;SDS011;65100;46.884;17.410;2022-11-15T00:06:24;93.27;;;25.30;;
76290;SDS011;65100;46.884;17.410;2022-11-15T00:08:49;90.30;;;25.47;;
76290;SDS011;65100;46.884;17.410;2022-11-15T00:11:15;95.70;;;27.37;;
76290;SDS011;65100;46.884;17.410;2022-11-15T00:13:40;96.63;;;27.13;;
76290;SDS011;65100;46.884;17.410;2022-11-15T00:16:06;99.47;;;27.47;;
76290;SDS011;65100;46.884;17.410;2022-11-15T00:18:32;91.90;;;25.60;;
76290;SDS011;65100;46.884;17.410;2022-11-15T00:21:03;90.37;;;26.50;;
76290;SDS011;65100;46.884;17.410;2022-11-15T00:23:30;86.60;;;24.80;;
76290;SDS011;65100;46.884;17.410;2022-11-15T00:25:59;95.17;;;26.03;;
76290;SDS011;65100;46.884;17.410;2022-11-15T00:28:24;92.38;;;26.08;;
76290;SDS011;65100;46.884;17.410;2022-11-15T00:30:51;92.05;;;26.95;;
76290;SDS011;65100;46.884;17.410;2022-11-15T00:33:17;85.40;;;24.77;;
76290;SDS011;65100;46.884;17.410;2022-11-15T00:35:42;84.57;;;25.42;;
76290;SDS011;65100;46.884;17.410;2022-11-15T00:38:08;86.50;;;26.10;;
76290;SDS011;65100;46.884;17.410;2022-11-15T00:40:33;92.55;;;25.48;;
76290;SDS011;65100;46.884;17.410;2022-11-15T00:42:59;86.43;;;25.67;;
76290;SDS011;65100;46.884;17.410;2022-11-15T00:45:25;91.93;;;26.83;;
76290;SDS011;65100;46.884;17.410;2022-11-15T00:47:50;85.93;;;25.20;;
76290;SDS011;65100;46.884;17.410;2022-11-15T00:50:16;92.75;;;25.75;;
76290;SDS011;65100;46.884;17.410;2022-11-15T00:52:42;99.90;;;27.35;;
76290;SDS011;65100;46.884;17.410;2022-11-15T00:55:18;62.40;;;17.92;;
76290;SDS011;65100;46.884;17.410;2022-11-15T00:57:44;101.03;;;26.63;;
76290;SDS011;65100;46.884;17.410;2022-11-15T01:00:10;102.32;;;27.45;;
76290;SDS011;65100;46.884;17.410;2022-11-15T01:02:36;101.03;;;27.02;;
76290;SDS011;65100;46.884;17.410;2022-11-15T01:05:02;105.03;;;28.63;;
76290;SDS011;65100;46.884;17.410;2022-11-15T01:07:27;98.57;;;25.50;;
76290;SDS011;65100;46.884;17.410;2022-11-15T01:09:53;107.33;;;29.30;;
76290;SDS011;65100;46.884;17.410;2022-11-15T01:12:18;97.30;;;26.40;;
76290;SDS011;65100;46.884;17.410;2022-11-15T01:14:44;107.05;;;28.85;;
76290;SDS011;65100;46.884;17.410;2022-11-15T01:17:09;100.20;;;26.80;;
76290;SDS011;65100;46.884;17.410;2022-11-15T01:19:35;93.10;;;27.43;;
76290;SDS011;65100;46.884;17.410;2022-11-15T01:22:00;96.85;;;28.15;;
76290;SDS011;65100;46.884;17.410;2022-11-15T01:24:26;88.53;;;26.70;;
76290;SDS011;65100;46.884;17.410;2022-11-15T01:26:51;95.20;;;28.90;;
76290;SDS011;65100;46.884;17.410;2022-11-15T01:29:17;86.87;;;25.77;;
76290;SDS011;65100;46.884;17.410;2022-11-15T01:31:42;88.47;;;24.23;;
76290;SDS011;65100;46.884;17.410;2022-11-15T01:34:08;86.22;;;27.92;;
76290;SDS011;65100;46.884;17.410;2022-11-15T01:36:33;78.10;;;24.30;;
76290;SDS011;65100;46.884;17.410;2022-11-15T01:38:59;82.50;;;26.10;;
76290;SDS011;65100;46.884;17.410;2022-11-15T01:41:28;86.18;;;26.17;;
76290;SDS011;65100;46.884;17.410;2022-11-15T01:46:55;84.38;;;24.80;;
76290;SDS011;65100;46.884;17.410;2022-11-15T01:49:22;91.68;;;26.77;;
76290;SDS011;65100;46.884;17.410;2022-11-15T01:51:49;84.53;;;25.77;;
76290;SDS011;65100;46.884;17.410;2022-11-15T01:54:16;83.00;;;25.90;;
76290;SDS011;65100;46.884;17.410;2022-11-15T01:56:54;82.17;;;25.23;;
76290;SDS011;65100;46.884;17.410;2022-11-15T01:59:24;84.75;;;25.52;;
76290;SDS011;65100;46.884;17.410;2022-11-15T02:01:51;82.95;;;25.50;;
76290;SDS011;65100;46.884;17.410;2022-11-15T02:04:17;83.70;;;23.60;;
76290;SDS011;65100;46.884;17.410;2022-11-15T02:06:56;89.63;;;26.73;;
76290;SDS011;65100;46.884;17.410;2022-11-15T02:09:22;81.95;;;24.40;;
76290;SDS011;65100;46.884;17.410;2022-11-15T02:11:47;76.50;;;24.73;;
76290;SDS011;65100;46.884;17.410;2022-11-15T02:14:15;71.20;;;22.80;;
76290;SDS011;65100;46.884;17.410;2022-11-15T02:17:04;68.53;;;23.25;;
76290;SDS011;65100;46.884;17.410;2022-11-15T02:19:58;71.82;;;22.90;;
76290;SDS011;65100;46.884;17.410;2022-11-15T02:28:45;82.68;;;25.50;;
76290;SDS011;65100;46.884;17.410;2022-11-15T02:31:36;80.70;;;25.50;;
76290;SDS011;65100;46.884;17.410;2022-11-15T02:34:32;84.93;;;26.15;;
76290;SDS011;65100;46.884;17.410;2022-11-15T02:37:11;79.15;;;25.75;;
76290;SDS011;65100;46.884;17.410;2022-11-15T02:40:38;81.30;;;24.83;;
76290;SDS011;65100;46.884;17.410;2022-11-15T02:42:42;83.85;;;24.65;;
76290;SDS011;65100;46.884;17.410;2022-11-15T02:45:32;82.25;;;25.50;;
76290;SDS011;65100;46.884;17.410;2022-11-15T02:48:01;82.80;;;24.70;;
76290;SDS011;65100;46.884;17.410;2022-11-15T02:50:29;69.95;;;22.77;;
76290;SDS011;65100;46.884;17.410;2022-11-15T02:52:56;81.60;;;24.03;;
76290;SDS011;65100;46.884;17.410;2022-11-15T02:55:29;83.78;;;23.75;;
76290;SDS011;65100;46.884;17.410;2022-11-15T02:58:01;79.68;;;24.98;;
76290;SDS011;65100;46.884;17.410;2022-11-15T03:03:32;86.25;;;25.45;;
76290;SDS011;65100;46.884;17.410;2022-11-15T03:12:08;79.88;;;25.02;;
76290;SDS011;65100;46.884;17.410;2022-11-15T03:14:47;86.93;;;25.83;;
76290;SDS011;65100;46.884;17.410;2022-11-15T03:20:00;77.88;;;25.15;;
76290;SDS011;65100;46.884;17.410;2022-11-15T03:22:29;66.60;;;23.85;;
76290;SDS011;65100;46.884;17.410;2022-11-15T03:25:00;85.28;;;26.10;;
76290;SDS011;65100;46.884;17.410;2022-11-15T03:27:39;72.57;;;23.73;;
76290;SDS011;65100;46.884;17.410;2022-11-15T03:30:09;68.47;;;23.50;;
76290;SDS011;65100;46.884;17.410;2022-11-15T03:32:44;69.82;;;23.77;;
76290;SDS011;65100;46.884;17.410;2022-11-15T03:35:14;67.78;;;24.42;;
76290;SDS011;65100;46.884;17.410;2022-11-15T03:40:47;74.80;;;24.67;;
76290;SDS011;65100;46.884;17.410;2022-11-15T03:49:03;64.47;;;23.23;;
76290;SDS011;65100;46.884;17.410;2022-11-15T03:51:38;67.88;;;23.85;;
76290;SDS011;65100;46.884;17.410;2022-11-15T03:54:04;69.30;;;23.73;;
76290;SDS011;65100;46.884;17.410;2022-11-15T03:56:30;66.00;;;23.98;;
76290;SDS011;65100;46.884;17.410;2022-11-15T03:58:56;65.47;;;23.83;;
76290;SDS011;65100;46.884;17.410;2022-11-15T04:01:22;67.30;;;23.90;;
76290;SDS011;65100;46.884;17.410;2022-11-15T04:03:47;63.40;;;22.43;;
76290;SDS011;65100;46.884;17.410;2022-11-15T04:06:13;62.83;;;22.13;;
76290;SDS011;65100;46.884;17.410;2022-11-15T04:08:38;64.43;;;23.70;;
76290;SDS011;65100;46.884;17.410;2022-11-15T04:11:03;65.20;;;24.07;;
76290;SDS011;65100;46.884;17.410;2022-11-15T04:13:29;73.20;;;23.05;;
76290;SDS011;65100;46.884;17.410;2022-11-15T04:15:54;67.97;;;21.87;;
76290;SDS011;65100;46.884;17.410;2022-11-15T04:18:20;69.93;;;24.33;;
76290;SDS011;65100;46.884;17.410;2022-11-15T04:20:45;65.38;;;22.92;;
76290;SDS011;65100;46.884;17.410;2022-11-15T04:23:30;66.70;;;23.75;;
76290;SDS011;65100;46.884;17.410;2022-11-15T04:26:18;65.03;;;24.80;;
76290;SDS011;65100;46.884;17.410;2022-11-15T04:28:45;66.32;;;23.60;;
76290;SDS011;65100;46.884;17.410;2022-11-15T04:31:30;68.65;;;24.48;;
76290;SDS011;65100;46.884;17.410;2022-11-15T04:33:55;63.27;;;23.37;;
76290;SDS011;65100;46.884;17.410;2022-11-15T04:36:21;70.05;;;25.38;;
76290;SDS011;65100;46.884;17.410;2022-11-15T04:39:05;70.30;;;24.50;;
76290;SDS011;65100;46.884;17.410;2022-11-15T04:41:30;67.30;;;23.87;;
76290;SDS011;65100;46.884;17.410;2022-11-15T04:43:56;65.67;;;22.27;;
76290;SDS011;65100;46.884;17.410;2022-11-15T04:46:22;67.80;;;23.77;;
76290;SDS011;65100;46.884;17.410;2022-11-15T04:48:48;68.20;;;24.10;;
76290;SDS011;65100;46.884;17.410;2022-11-15T04:51:14;66.30;;;24.27;;
76290;SDS011;65100;46.884;17.410;2022-11-15T04:53:40;68.23;;;24.53;;
76290;SDS011;65100;46.884;17.410;2022-11-15T04:56:05;65.20;;;23.10;;
76290;SDS011;65100;46.884;17.410;2022-11-15T04:58:31;60.23;;;22.37;;
76290;SDS011;65100;46.884;17.410;2022-11-15T05:00:56;62.10;;;22.20;;
76290;SDS011;65100;46.884;17.410;2022-11-15T05:03:22;62.07;;;20.93;;
76290;SDS011;65100;46.884;17.410;2022-11-15T05:06:06;59.83;;;20.77;;
76290;SDS011;65100;46.884;17.410;2022-11-15T05:08:31;65.03;;;23.80;;
76290;SDS011;65100;46.884;17.410;2022-11-15T05:10:57;61.90;;;22.90;;
76290;SDS011;65100;46.884;17.410;2022-11-15T05:13:23;64.57;;;22.23;;
76290;SDS011;65100;46.884;17.410;2022-11-15T05:15:48;64.00;;;21.77;;
76290;SDS011;65100;46.884;17.410;2022-11-15T05:18:14;66.90;;;24.20;;
76290;SDS011;65100;46.884;17.410;2022-11-15T05:20:39;65.83;;;22.77;;
76290;SDS011;65100;46.884;17.410;2022-11-15T05:23:05;69.73;;;24.10;;
76290;SDS011;65100;46.884;17.410;2022-11-15T05:25:30;67.63;;;22.35;;
76290;SDS011;65100;46.884;17.410;2022-11-15T05:27:56;65.00;;;22.10;;
76290;SDS011;65100;46.884;17.410;2022-11-15T05:30:21;62.33;;;21.15;;
76290;SDS011;65100;46.884;17.410;2022-11-15T05:32:47;60.63;;;20.83;;
76290;SDS011;65100;46.884;17.410;2022-11-15T05:35:15;64.77;;;21.93;;
76290;SDS011;65100;46.884;17.410;2022-11-15T05:37:45;64.00;;;23.00;;
76290;SDS011;65100;46.884;17.410;2022-11-15T05:40:11;62.97;;;23.40;;
76290;SDS011;65100;46.884;17.410;2022-11-15T05:42:36;66.73;;;22.77;;
76290;SDS011;65100;46.884;17.410;2022-11-15T05:45:03;67.60;;;22.70;;
76290;SDS011;65100;46.884;17.410;2022-11-15T05:47:31;64.88;;;22.45;;
76290;SDS011;65100;46.884;17.410;2022-11-15T05:49:58;62.97;;;21.95;;
76290;SDS011;65100;46.884;17.410;2022-11-15T05:52:24;63.50;;;22.63;;
76290;SDS011;65100;46.884;17.410;2022-11-15T05:54:53;61.97;;;22.70;;
76290;SDS011;65100;46.884;17.410;2022-11-15T05:57:20;62.58;;;22.00;;
76290;SDS011;65100;46.884;17.410;2022-11-15T05:59:46;61.50;;;20.33;;
76290;SDS011;65100;46.884;17.410;2022-11-15T06:02:11;63.03;;;21.77;;
76290;SDS011;65100;46.884;17.410;2022-11-15T06:04:37;69.60;;;21.75;;
76290;SDS011;65100;46.884;17.410;2022-11-15T06:07:03;70.40;;;23.17;;
76290;SDS011;65100;46.884;17.410;2022-11-15T06:09:28;59.67;;;21.33;;
76290;SDS011;65100;46.884;17.410;2022-11-15T06:11:53;64.13;;;21.40;;
76290;SDS011;65100;46.884;17.410;2022-11-15T06:14:19;68.23;;;22.53;;
76290;SDS011;65100;46.884;17.410;2022-11-15T06:16:44;64.00;;;21.97;;
76290;SDS011;65100;46.884;17.410;2022-11-15T06:19:10;62.20;;;22.60;;
76290;SDS011;65100;46.884;17.410;2022-11-15T06:21:35;63.07;;;22.33;;
76290;SDS011;65100;46.884;17.410;2022-11-15T06:24:01;60.33;;;20.77;;
76290;SDS011;65100;46.884;17.410;2022-11-15T06:26:26;60.00;;;21.63;;
76290;SDS011;65100;46.884;17.410;2022-11-15T06:28:52;58.70;;;22.70;;
76290;SDS011;65100;46.884;17.410;2022-11-15T06:31:17;51.63;;;20.20;;
76290;SDS011;65100;46.884;17.410;2022-11-15T06:33:43;52.73;;;20.47;;
76290;SDS011;65100;46.884;17.410;2022-11-15T06:36:10;53.90;;;19.63;;
76290;SDS011;65100;46.884;17.410;2022-11-15T06:38:38;48.47;;;19.13;;
76290;SDS011;65100;46.884;17.410;2022-11-15T06:41:05;48.85;;;16.88;;
76290;SDS011;65100;46.884;17.410;2022-11-15T06:43:32;47.33;;;18.83;;
76290;SDS011;65100;46.884;17.410;2022-11-15T06:45:59;49.37;;;17.73;;
76290;SDS011;65100;46.884;17.410;2022-11-15T06:48:25;49.05;;;17.38;;
76290;SDS011;65100;46.884;17.410;2022-11-15T06:50:51;58.22;;;20.73;;
76290;SDS011;65100;46.884;17.410;2022-11-15T06:53:18;57.00;;;20.27;;
76290;SDS011;65100;46.884;17.410;2022-11-15T06:55:43;56.97;;;20.30;;
76290;SDS011;65100;46.884;17.410;2022-11-15T06:58:09;57.33;;;20.67;;
76290;SDS011;65100;46.884;17.410;2022-11-15T07:00:35;54.90;;;21.07;;
76290;SDS011;65100;46.884;17.410;2022-11-15T07:03:00;50.05;;;20.40;;
76290;SDS011;65100;46.884;17.410;2022-11-15T07:05:27;53.97;;;20.27;;
76290;SDS011;65100;46.884;17.410;2022-11-15T07:07:53;53.45;;;20.35;;
76290;SDS011;65100;46.884;17.410;2022-11-15T07:10:20;54.13;;;21.30;;
76290;SDS011;65100;46.884;17.410;2022-11-15T07:12:48;52.05;;;20.30;;
76290;SDS011;65100;46.884;17.410;2022-11-15T07:15:15;51.45;;;20.35;;
76290;SDS011;65100;46.884;17.410;2022-11-15T07:17:41;56.35;;;20.33;;
76290;SDS011;65100;46.884;17.410;2022-11-15T07:20:06;52.37;;;21.07;;
76290;SDS011;65100;46.884;17.410;2022-11-15T07:22:32;55.47;;;19.98;;
76290;SDS011;65100;46.884;17.410;2022-11-15T07:24:58;55.90;;;20.20;;
76290;SDS011;65100;46.884;17.410;2022-11-15T07:27:23;51.67;;;20.02;;
76290;SDS011;65100;46.884;17.410;2022-11-15T07:29:49;50.43;;;20.40;;
76290;SDS011;65100;46.884;17.410;2022-11-15T07:32:14;50.90;;;20.80;;
76290;SDS011;65100;46.884;17.410;2022-11-15T07:34:40;50.53;;;19.10;;
76290;SDS011;65100;46.884;17.410;2022-11-15T07:37:05;51.73;;;19.93;;
76290;SDS011;65100;46.884;17.410;2022-11-15T07:39:31;49.20;;;20.27;;
76290;SDS011;65100;46.884;17.410;2022-11-15T07:41:56;52.67;;;21.57;;
76290;SDS011;65100;46.884;17.410;2022-11-15T07:44:42;54.28;;;20.13;;
76290;SDS011;65100;46.884;17.410;2022-11-15T07:47:08;50.07;;;20.27;;
76290;SDS011;65100;46.884;17.410;2022-11-15T07:49:33;45.55;;;18.25;;
76290;SDS011;65100;46.884;17.410;2022-11-15T07:51:59;53.27;;;20.33;;
76290;SDS011;65100;46.884;17.410;2022-11-15T07:54:25;50.05;;;21.08;;
76290;SDS011;65100;46.884;17.410;2022-11-15T07:56:51;46.57;;;19.17;;
76290;SDS011;65100;46.884;17.410;2022-11-15T07:59:16;46.22;;;19.65;;
76290;SDS011;65100;46.884;17.410;2022-11-15T08:01:42;51.13;;;20.53;;
76290;SDS011;65100;46.884;17.410;2022-11-15T08:04:07;50.95;;;20.98;;
76290;SDS011;65100;46.884;17.410;2022-11-15T08:06:35;37.03;;;15.77;;
76290;SDS011;65100;46.884;17.410;2022-11-15T08:09:00;46.53;;;20.20;;
76290;SDS011;65100;46.884;17.410;2022-11-15T08:14:34;48.47;;;20.80;;
76290;SDS011;65100;46.884;17.410;2022-11-15T08:17:00;43.30;;;18.90;;
76290;SDS011;65100;46.884;17.410;2022-11-15T08:19:25;43.60;;;18.73;;
76290;SDS011;65100;46.884;17.410;2022-11-15T08:21:51;52.35;;;20.33;;
76290;SDS011;65100;46.884;17.410;2022-11-15T08:24:16;48.27;;;21.43;;
76290;SDS011;65100;46.884;17.410;2022-11-15T08:26:42;46.80;;;19.05;;
76290;SDS011;65100;46.884;17.410;2022-11-15T08:29:08;45.27;;;20.10;;
76290;SDS011;65100;46.884;17.410;2022-11-15T08:31:37;43.67;;;18.60;;
76290;SDS011;65100;46.884;17.410;2022-11-15T08:34:04;47.25;;;21.75;;
76290;SDS011;65100;46.884;17.410;2022-11-15T08:36:30;44.53;;;20.42;;
76290;SDS011;65100;46.884;17.410;2022-11-15T08:38:56;44.10;;;20.00;;
76290;SDS011;65100;46.884;17.410;2022-11-15T08:41:26;45.42;;;19.48;;
76290;SDS011;65100;46.884;17.410;2022-11-15T08:43:55;49.17;;;20.77;;
76290;SDS011;65100;46.884;17.410;2022-11-15T08:46:20;46.45;;;20.77;;
76290;SDS011;65100;46.884;17.410;2022-11-15T08:48:46;48.73;;;21.30;;
76290;SDS011;65100;46.884;17.410;2022-11-15T08:51:11;52.45;;;22.52;;
76290;SDS011;65100;46.884;17.410;2022-11-15T08:53:37;50.63;;;21.23;;
76290;SDS011;65100;46.884;17.410;2022-11-15T08:56:02;53.27;;;24.10;;
76290;SDS011;65100;46.884;17.410;2022-11-15T08:58:33;54.17;;;23.77;;
76290;SDS011;65100;46.884;17.410;2022-11-15T09:01:01;47.83;;;20.50;;
76290;SDS011;65100;46.884;17.410;2022-11-15T09:03:28;47.90;;;20.48;;
76290;SDS011;65100;46.884;17.410;2022-11-15T09:05:54;49.93;;;20.43;;
76290;SDS011;65100;46.884;17.410;2022-11-15T09:08:21;48.17;;;19.95;;
76290;SDS011;65100;46.884;17.410;2022-11-15T09:10:46;46.63;;;18.98;;
76290;SDS011;65100;46.884;17.410;2022-11-15T09:13:12;47.00;;;19.10;;
76290;SDS011;65100;46.884;17.410;2022-11-15T09:15:38;46.08;;;20.40;;
76290;SDS011;65100;46.884;17.410;2022-11-15T09:18:04;47.27;;;19.33;;
76290;SDS011;65100;46.884;17.410;2022-11-15T09:20:29;48.10;;;21.57;;
76290;SDS011;65100;46.884;17.410;2022-11-15T09:22:58;62.20;;;23.60;;
76290;SDS011;65100;46.884;17.410;2022-11-15T09:25:28;54.95;;;22.55;;
76290;SDS011;65100;46.884;17.410;2022-11-15T09:27:54;48.78;;;21.27;;
76290;SDS011;65100;46.884;17.410;2022-11-15T09:30:19;48.67;;;20.37;;
76290;SDS011;65100;46.884;17.410;2022-11-15T09:32:45;46.60;;;19.80;;
76290;SDS011;65100;46.884;17.410;2022-11-15T09:35:10;47.33;;;20.40;;
76290;SDS011;65100;46.884;17.410;2022-11-15T09:37:36;45.23;;;18.73;;
76290;SDS011;65100;46.884;17.410;2022-11-15T09:40:03;46.13;;;19.77;;
76290;SDS011;65100;46.884;17.410;2022-11-15T09:42:39;43.28;;;18.40;;
76290;SDS011;65100;46.884;17.410;2022-11-15T09:45:36;46.90;;;19.10;;
76290;SDS011;65100;46.884;17.410;2022-11-15T09:51:14;47.13;;;19.25;;
76290;SDS011;65100;46.884;17.410;2022-11-15T09:54:33;45.78;;;18.70;;
76290;SDS011;65100;46.884;17.410;2022-11-15T09:57:18;49.10;;;18.83;;
76290;SDS011;65100;46.884;17.410;2022-11-15T10:02:52;47.08;;;18.30;;
76290;SDS011;65100;46.884;17.410;2022-11-15T10:05:40;47.63;;;20.20;;
76290;SDS011;65100;46.884;17.410;2022-11-15T10:11:01;49.38;;;20.48;;
76290;SDS011;65100;46.884;17.410;2022-11-15T10:13:47;48.20;;;18.97;;
76290;SDS011;65100;46.884;17.410;2022-11-15T10:16:37;49.63;;;19.48;;
76290;SDS011;65100;46.884;17.410;2022-11-15T10:19:17;48.40;;;21.02;;
76290;SDS011;65100;46.884;17.410;2022-11-15T10:25:26;46.15;;;20.20;;
76290;SDS011;65100;46.884;17.410;2022-11-15T10:27:53;44.33;;;18.53;;
76290;SDS011;65100;46.884;17.410;2022-11-15T10:30:42;47.63;;;19.63;;
76290;SDS011;65100;46.884;17.410;2022-11-15T10:33:34;46.08;;;18.65;;
76290;SDS011;65100;46.884;17.410;2022-11-15T10:44:42;47.88;;;19.90;;
76290;SDS011;65100;46.884;17.410;2022-11-15T10:46:45;45.80;;;19.10;;
76290;SDS011;65100;46.884;17.410;2022-11-15T10:49:21;48.58;;;20.17;;
76290;SDS011;65100;46.884;17.410;2022-11-15T10:51:58;46.28;;;19.83;;
76290;SDS011;65100;46.884;17.410;2022-11-15T10:54:25;50.20;;;19.80;;
76290;SDS011;65100;46.884;17.410;2022-11-15T10:56:53;46.75;;;19.30;;
76290;SDS011;65100;46.884;17.410;2022-11-15T10:59:25;50.05;;;20.75;;
76290;SDS011;65100;46.884;17.410;2022-11-15T11:01:54;50.00;;;19.98;;
76290;SDS011;65100;46.884;17.410;2022-11-15T11:04:20;51.20;;;20.27;;
76290;SDS011;65100;46.884;17.410;2022-11-15T11:06:46;48.97;;;20.15;;
76290;SDS011;65100;46.884;17.410;2022-11-15T11:11:56;53.85;;;21.25;;
76290;SDS011;65100;46.884;17.410;2022-11-15T11:14:27;51.17;;;21.38;;
76290;SDS011;65100;46.884;17.410;2022-11-15T11:19:48;54.33;;;22.95;;
76290;SDS011;65100;46.884;17.410;2022-11-15T11:22:30;54.55;;;23.15;;
76290;SDS011;65100;46.884;17.410;2022-11-15T11:36:03;60.00;;;26.58;;
76290;SDS011;65100;46.884;17.410;2022-11-15T11:39:10;85.13;;;38.88;;
76290;SDS011;65100;46.884;17.410;2022-11-15T11:42:32;65.50;;;25.75;;
76290;SDS011;65100;46.884;17.410;2022-11-15T11:47:52;54.65;;;22.88;;
76290;SDS011;65100;46.884;17.410;2022-11-15T11:50:37;60.78;;;24.35;;
76290;SDS011;65100;46.884;17.410;2022-11-15T11:55:49;56.20;;;22.27;;
76290;SDS011;65100;46.884;17.410;2022-11-15T12:03:45;54.85;;;23.00;;
76290;SDS011;65100;46.884;17.410;2022-11-15T12:12:17;54.57;;;20.60;;
76290;SDS011;65100;46.884;17.410;2022-11-15T12:14:51;55.03;;;22.42;;
76290;SDS011;65100;46.884;17.410;2022-11-15T12:17:25;56.03;;;22.55;;
76290;SDS011;65100;46.884;17.410;2022-11-15T12:19:57;54.85;;;22.38;;
76290;SDS011;65100;46.884;17.410;2022-11-15T12:22:36;54.88;;;23.73;;
76290;SDS011;65100;46.884;17.410;2022-11-15T12:25:17;55.27;;;22.93;;
76290;SDS011;65100;46.884;17.410;2022-11-15T12:30:23;49.85;;;20.92;;
76290;SDS011;65100;46.884;17.410;2022-11-15T12:33:15;45.55;;;19.35;;
76290;SDS011;65100;46.884;17.410;2022-11-15T12:35:57;47.92;;;20.73;;
76290;SDS011;65100;46.884;17.410;2022-11-15T12:41:16;50.50;;;20.42;;
76290;SDS011;65100;46.884;17.410;2022-11-15T12:43:43;54.78;;;21.80;;
76290;SDS011;65100;46.884;17.410;2022-11-15T12:46:11;51.35;;;19.65;;
76290;SDS011;65100;46.884;17.410;2022-11-15T12:52:09;53.03;;;21.57;;
76290;SDS011;65100;46.884;17.410;2022-11-15T13:02:44;67.57;;;26.25;;
76290;SDS011;65100;46.884;17.410;2022-11-15T13:22:51;64.37;;;26.37;;
76290;SDS011;65100;46.884;17.410;2022-11-15T13:28:24;66.53;;;25.75;;
76290;SDS011;65100;46.884;17.410;2022-11-15T13:31:00;65.28;;;25.10;;
76290;SDS011;65100;46.884;17.410;2022-11-15T13:33:44;58.97;;;23.52;;
76290;SDS011;65100;46.884;17.410;2022-11-15T13:36:14;65.40;;;24.70;;
76290;SDS011;65100;46.884;17.410;2022-11-15T13:38:44;64.18;;;24.40;;
76290;SDS011;65100;46.884;17.410;2022-11-15T13:41:20;58.90;;;23.55;;
76290;SDS011;65100;46.884;17.410;2022-11-15T13:43:51;65.43;;;24.37;;
76290;SDS011;65100;46.884;17.410;2022-11-15T13:46:18;61.67;;;24.05;;
76290;SDS011;65100;46.884;17.410;2022-11-15T13:48:50;65.20;;;24.95;;
76290;SDS011;65100;46.884;17.410;2022-11-15T13:53:47;61.75;;;24.58;;
76290;SDS011;65100;46.884;17.410;2022-11-15T13:56:18;61.33;;;25.17;;
76290;SDS011;65100;46.884;17.410;2022-11-15T13:58:45;64.32;;;25.35;;
76290;SDS011;65100;46.884;17.410;2022-11-15T14:01:16;63.05;;;26.13;;
76290;SDS011;65100;46.884;17.410;2022-11-15T14:03:51;66.63;;;25.85;;
76290;SDS011;65100;46.884;17.410;2022-11-15T14:06:21;62.88;;;26.05;;
76290;SDS011;65100;46.884;17.410;2022-11-15T14:11:25;61.50;;;24.90;;
76290;SDS011;65100;46.884;17.410;2022-11-15T14:19:34;47.55;;;22.13;;
76290;SDS011;65100;46.884;17.410;2022-11-15T14:22:21;51.97;;;22.27;;
76290;SDS011;65100;46.884;17.410;2022-11-15T14:27:41;57.80;;;25.77;;
76290;SDS011;65100;46.884;17.410;2022-11-15T14:30:29;55.95;;;23.48;;
76290;SDS011;65100;46.884;17.410;2022-11-15T14:32:54;58.97;;;24.23;;
76290;SDS011;65100;46.884;17.410;2022-11-15T14:35:22;54.33;;;24.50;;
76290;SDS011;65100;46.884;17.410;2022-11-15T14:37:48;60.40;;;25.60;;
76290;SDS011;65100;46.884;17.410;2022-11-15T14:40:18;55.80;;;23.65;;
76290;SDS011;65100;46.884;17.410;2022-11-15T14:42:46;53.13;;;23.25;;
76290;SDS011;65100;46.884;17.410;2022-11-15T14:45:22;52.35;;;23.23;;
76290;SDS011;65100;46.884;17.410;2022-11-15T14:47:47;48.33;;;22.23;;
76290;SDS011;65100;46.884;17.410;2022-11-15T14:50:13;46.47;;;21.63;;
76290;SDS011;65100;46.884;17.410;2022-11-15T14:52:41;48.25;;;22.70;;
76290;SDS011;65100;46.884;17.410;2022-11-15T14:57:36;39.37;;;19.80;;
76290;SDS011;65100;46.884;17.410;2022-11-15T15:00:01;35.85;;;17.33;;
76290;SDS011;65100;46.884;17.410;2022-11-15T15:02:28;30.40;;;15.63;;
76290;SDS011;65100;46.884;17.410;2022-11-15T15:04:53;29.17;;;15.02;;
76290;SDS011;65100;46.884;17.410;2022-11-15T15:07:19;28.33;;;14.40;;
76290;SDS011;65100;46.884;17.410;2022-11-15T15:09:45;27.70;;;14.68;;
76290;SDS011;65100;46.884;17.410;2022-11-15T15:12:15;30.00;;;15.48;;
76290;SDS011;65100;46.884;17.410;2022-11-15T15:14:42;30.70;;;16.17;;
76290;SDS011;65100;46.884;17.410;2022-11-15T15:17:08;30.90;;;16.23;;
76290;SDS011;65100;46.884;17.410;2022-11-15T15:19:33;30.23;;;16.50;;
76290;SDS011;65100;46.884;17.410;2022-11-15T15:21:59;30.83;;;16.03;;
76290;SDS011;65100;46.884;17.410;2022-11-15T15:24:25;31.42;;;16.23;;
76290;SDS011;65100;46.884;17.410;2022-11-15T15:26:50;30.77;;;16.73;;
76290;SDS011;65100;46.884;17.410;2022-11-15T15:29:16;29.70;;;15.90;;
76290;SDS011;65100;46.884;17.410;2022-11-15T15:31:41;33.60;;;17.27;;
76290;SDS011;65100;46.884;17.410;2022-11-15T15:34:07;33.50;;;17.67;;
76290;SDS011;65100;46.884;17.410;2022-11-15T15:36:32;34.67;;;17.80;;
76290;SDS011;65100;46.884;17.410;2022-11-15T15:38:58;33.47;;;17.83;;
76290;SDS011;65100;46.884;17.410;2022-11-15T15:41:23;34.20;;;18.13;;
76290;SDS011;65100;46.884;17.410;2022-11-15T15:43:49;33.97;;;17.33;;
76290;SDS011;65100;46.884;17.410;2022-11-15T15:46:15;38.33;;;18.97;;
76290;SDS011;65100;46.884;17.410;2022-11-15T15:48:41;39.92;;;19.92;;
76290;SDS011;65100;46.884;17.410;2022-11-15T15:51:07;42.17;;;20.83;;
76290;SDS011;65100;46.884;17.410;2022-11-15T15:53:33;53.77;;;25.90;;
76290;SDS011;65100;46.884;17.410;2022-11-15T15:55:59;53.20;;;26.30;;
76290;SDS011;65100;46.884;17.410;2022-11-15T15:58:25;62.08;;;28.98;;
76290;SDS011;65100;46.884;17.410;2022-11-15T16:00:50;51.80;;;26.60;;
76290;SDS011;65100;46.884;17.410;2022-11-15T16:03:15;47.10;;;23.77;;
76290;SDS011;65100;46.884;17.410;2022-11-15T16:05:41;49.20;;;23.88;;
76290;SDS011;65100;46.884;17.410;2022-11-15T16:08:25;45.90;;;22.70;;
76290;SDS011;65100;46.884;17.410;2022-11-15T16:10:54;48.28;;;21.98;;
76290;SDS011;65100;46.884;17.410;2022-11-15T16:13:20;51.37;;;23.37;;
76290;SDS011;65100;46.884;17.410;2022-11-15T16:15:45;48.83;;;23.25;;
76290;SDS011;65100;46.884;17.410;2022-11-15T16:18:15;51.63;;;24.10;;
76290;SDS011;65100;46.884;17.410;2022-11-15T16:20:43;48.58;;;23.10;;
76290;SDS011;65100;46.884;17.410;2022-11-15T16:23:11;48.78;;;23.55;;
76290;SDS011;65100;46.884;17.410;2022-11-15T16:25:50;50.45;;;23.92;;
76290;SDS011;65100;46.884;17.410;2022-11-15T16:28:24;44.97;;;21.75;;
76290;SDS011;65100;46.884;17.410;2022-11-15T16:31:05;42.67;;;20.43;;
76290;SDS011;65100;46.884;17.410;2022-11-15T16:33:33;42.45;;;21.00;;
76290;SDS011;65100;46.884;17.410;2022-11-15T16:35:59;45.63;;;22.15;;
76290;SDS011;65100;46.884;17.410;2022-11-15T16:38:25;40.83;;;20.63;;
76290;SDS011;65100;46.884;17.410;2022-11-15T16:40:50;44.00;;;22.53;;
76290;SDS011;65100;46.884;17.410;2022-11-15T16:43:16;41.17;;;21.63;;